createdAt,value
2023-11-22T00:01:52.945Z,20.58
2023-11-22T00:04:19.502Z,15.95
2023-11-22T00:06:46.016Z,16.00
2023-11-22T00:09:12.742Z,17.25
2023-11-22T00:11:39.213Z,19.23
2023-11-22T00:14:06.019Z,19.27
2023-11-22T00:16:33.058Z,15.30
2023-11-22T00:18:59.558Z,19.00
2023-11-22T00:21:26.400Z,16.90
2023-11-22T00:23:52.844Z,18.88
2023-11-22T00:26:19.481Z,16.30
2023-11-22T00:28:46.049Z,19.95
2023-11-22T00:31:15.875Z,18.25
2023-11-22T00:33:42.652Z,17.27
2023-11-22T00:36:09.271Z,19.45
2023-11-22T00:38:37.218Z,18.55
2023-11-22T00:41:03.890Z,22.92
2023-11-22T00:43:30.459Z,18.23
2023-11-22T00:45:58.215Z,20.77
2023-11-22T00:48:24.722Z,21.08
2023-11-22T00:50:51.950Z,17.63
2023-11-22T00:53:19.553Z,19.58
2023-11-22T00:55:46.113Z,17.75
2023-11-22T00:58:13.022Z,19.27
2023-11-22T01:00:39.462Z,18.73
2023-11-22T01:03:06.524Z,14.88
2023-11-22T01:05:33.219Z,18.52
2023-11-22T01:07:59.817Z,17.98
2023-11-22T01:10:26.306Z,20.10
2023-11-22T01:12:52.810Z,17.20
2023-11-22T01:15:19.381Z,17.42
2023-11-22T01:17:46.567Z,22.85
2023-11-22T01:20:13.982Z,21.92
2023-11-22T01:22:40.652Z,18.55
2023-11-22T01:25:07.422Z,19.48
2023-11-22T01:27:33.914Z,20.25
2023-11-22T01:30:00.384Z,20.15
2023-11-22T01:32:26.838Z,26.05
2023-11-22T01:34:53.269Z,22.27
2023-11-22T01:37:19.691Z,22.80
2023-11-22T01:39:46.201Z,20.15
2023-11-22T01:42:12.695Z,18.23
2023-11-22T01:44:39.152Z,18.95
2023-11-22T01:47:06.075Z,18.40
2023-11-22T01:49:32.864Z,20.45
2023-11-22T01:51:59.467Z,18.08
2023-11-22T01:54:26.158Z,16.77
2023-11-22T01:56:52.715Z,16.85
2023-11-22T01:59:19.347Z,19.13
2023-11-22T02:01:46.207Z,18.38
2023-11-22T02:04:15.870Z,20.13
2023-11-22T02:06:42.741Z,17.38
2023-11-22T02:09:14.464Z,22.30
2023-11-22T02:11:43.144Z,20.48
2023-11-22T02:14:10.245Z,18.77
2023-11-22T02:16:38.082Z,19.92
2023-11-22T02:19:06.223Z,17.67
2023-11-22T02:21:32.644Z,20.27
2023-11-22T02:23:59.120Z,20.63
2023-11-22T02:26:26.010Z,23.92
2023-11-22T02:28:52.524Z,17.25
2023-11-22T02:31:19.146Z,19.08
2023-11-22T02:33:45.568Z,19.45
2023-11-22T02:36:13.862Z,28.00
2023-11-22T02:38:41.568Z,16.35
2023-11-22T02:41:08.101Z,17.83
2023-11-22T02:43:34.591Z,16.65
2023-11-22T02:46:01.101Z,18.58
2023-11-22T02:48:27.602Z,22.25
2023-11-22T02:50:55.349Z,21.13
2023-11-22T02:53:22.602Z,17.45
2023-11-22T02:55:49.937Z,17.13
2023-11-22T02:58:17.415Z,19.25
2023-11-22T03:00:44.677Z,17.13
2023-11-22T03:03:12.736Z,17.42
2023-11-22T03:05:39.317Z,19.45
2023-11-22T03:08:08.296Z,17.15
2023-11-22T03:10:34.971Z,20.42
2023-11-22T03:13:01.432Z,16.08
2023-11-22T03:15:28.015Z,16.88
2023-11-22T03:17:55.515Z,17.58
2023-11-22T03:20:22.449Z,18.27
2023-11-22T03:22:51.598Z,17.95
2023-11-22T03:25:18.962Z,21.95
2023-11-22T03:27:45.480Z,18.48
2023-11-22T03:30:13.145Z,18.75
2023-11-22T03:32:40.776Z,20.10
2023-11-22T03:35:08.717Z,18.33
2023-11-22T03:37:35.681Z,20.40
2023-11-22T03:40:02.334Z,20.02
2023-11-22T03:42:29.023Z,20.25
2023-11-22T03:44:55.743Z,21.55
2023-11-22T03:47:22.494Z,20.50
2023-11-22T03:49:48.974Z,20.52
2023-11-22T03:52:15.491Z,17.48
2023-11-22T03:54:41.963Z,19.73
2023-11-22T03:57:08.494Z,19.63
2023-11-22T03:59:35.869Z,19.20
2023-11-22T04:02:02.386Z,20.65
2023-11-22T04:04:28.899Z,22.40
2023-11-22T04:06:55.458Z,21.13
2023-11-22T04:09:21.951Z,26.05
2023-11-22T04:11:48.566Z,20.75
2023-11-22T04:14:15.274Z,18.98
2023-11-22T04:16:42.131Z,21.00
2023-11-22T04:19:08.945Z,19.77
2023-11-22T04:21:35.761Z,20.17
2023-11-22T04:24:02.330Z,19.63
2023-11-22T04:26:28.810Z,27.27
2023-11-22T04:28:55.544Z,22.27
2023-11-22T04:31:22.067Z,27.00
2023-11-22T04:33:48.726Z,21.73
2023-11-22T04:36:15.217Z,19.25
2023-11-22T04:38:41.679Z,28.52
2023-11-22T04:41:08.874Z,30.80
2023-11-22T04:43:35.368Z,17.25
2023-11-22T04:46:01.864Z,19.98
2023-11-22T04:48:28.495Z,21.45
2023-11-22T04:50:54.978Z,25.38
2023-11-22T04:53:21.522Z,18.73
2023-11-22T04:55:47.986Z,17.75
2023-11-22T04:58:14.413Z,21.40
2023-11-22T05:00:40.917Z,22.85
2023-11-22T05:03:07.689Z,21.98
2023-11-22T05:05:34.377Z,20.00
2023-11-22T05:08:00.933Z,25.63
2023-11-22T05:10:27.457Z,21.92
2023-11-22T05:12:53.986Z,24.35
2023-11-22T05:15:20.651Z,23.60
2023-11-22T05:17:47.304Z,21.17
2023-11-22T05:20:13.827Z,22.20
2023-11-22T05:22:40.319Z,26.73
2023-11-22T05:25:08.206Z,22.27
2023-11-22T05:27:34.841Z,23.05
2023-11-22T05:30:02.113Z,24.27
2023-11-22T05:32:30.317Z,22.75
2023-11-22T05:34:56.961Z,24.17
2023-11-22T05:37:24.952Z,21.33
2023-11-22T05:39:52.216Z,21.38
2023-11-22T05:42:19.157Z,20.77
2023-11-22T05:44:45.713Z,25.15
2023-11-22T05:47:14.137Z,24.30
2023-11-22T05:49:40.749Z,23.45
2023-11-22T05:52:07.275Z,24.40
2023-11-22T05:54:33.742Z,23.58
2023-11-22T05:57:00.207Z,18.73
2023-11-22T05:59:26.864Z,23.83
2023-11-22T06:01:53.390Z,22.30
2023-11-22T06:04:20.330Z,25.08
2023-11-22T06:06:50.042Z,20.70
2023-11-22T06:09:16.640Z,26.80
2023-11-22T06:11:43.259Z,22.92
2023-11-22T06:14:09.838Z,24.60
2023-11-22T06:16:36.485Z,25.95
2023-11-22T06:19:02.982Z,22.38
2023-11-22T06:21:29.609Z,23.02
2023-11-22T06:23:59.654Z,27.40
2023-11-22T06:26:26.509Z,25.25
2023-11-22T06:28:53.024Z,23.52
2023-11-22T06:31:20.006Z,25.60
2023-11-22T06:33:46.631Z,23.83
2023-11-22T06:36:15.366Z,22.77
2023-11-22T06:38:41.988Z,34.22
2023-11-22T06:41:08.445Z,18.98
2023-11-22T06:43:34.957Z,24.40
2023-11-22T06:46:02.254Z,24.52
2023-11-22T06:48:42.713Z,24.80
2023-11-22T06:51:09.182Z,25.15
2023-11-22T06:53:35.806Z,21.42
2023-11-22T06:56:02.814Z,24.25
2023-11-22T06:58:29.223Z,25.98
2023-11-22T07:00:56.330Z,22.45
2023-11-22T07:03:23.013Z,28.45
2023-11-22T07:05:49.679Z,25.17
2023-11-22T07:08:19.796Z,27.25
2023-11-22T07:10:46.473Z,23.50
2023-11-22T07:13:13.903Z,23.33
2023-11-22T07:15:41.952Z,25.38
2023-11-22T07:18:11.043Z,35.55
2023-11-22T07:20:38.265Z,24.92
2023-11-22T07:23:04.805Z,22.42
2023-11-22T07:25:32.642Z,28.27
2023-11-22T07:28:00.345Z,28.88
2023-11-22T07:30:31.753Z,26.35
2023-11-22T07:33:00.413Z,22.90
2023-11-22T07:35:29.382Z,24.90
2023-11-22T07:37:56.124Z,27.10
2023-11-22T07:40:23.581Z,35.55
2023-11-22T07:42:50.513Z,30.67
2023-11-22T07:45:18.119Z,25.17
2023-11-22T07:47:45.140Z,30.98
2023-11-22T07:50:15.040Z,23.75
2023-11-22T07:52:42.802Z,24.95
2023-11-22T07:55:10.877Z,28.30
2023-11-22T07:57:40.319Z,30.98
2023-11-22T08:00:08.679Z,38.97
2023-11-22T08:02:37.920Z,36.85
2023-11-22T08:05:09.443Z,29.58
2023-11-22T08:07:39.812Z,28.42
2023-11-22T08:10:10.850Z,28.33
2023-11-22T08:12:40.222Z,31.15
2023-11-22T08:15:06.941Z,30.45
2023-11-22T08:17:33.646Z,30.60
2023-11-22T08:20:01.291Z,28.17
2023-11-22T08:22:30.098Z,27.58
2023-11-22T08:24:58.465Z,28.30
2023-11-22T08:27:24.949Z,30.70
2023-11-22T08:29:51.697Z,28.83
2023-11-22T08:32:19.959Z,32.28
2023-11-22T08:34:46.701Z,27.73
2023-11-22T08:37:13.139Z,28.20
2023-11-22T08:39:40.312Z,24.38
2023-11-22T08:42:10.453Z,26.27
2023-11-22T08:44:37.764Z,31.25
2023-11-22T08:47:04.574Z,33.47
2023-11-22T08:49:31.342Z,27.38
2023-11-22T08:51:58.031Z,29.65
2023-11-22T08:54:24.559Z,28.17
2023-11-22T08:56:51.148Z,28.95
2023-11-22T08:59:17.795Z,28.23
2023-11-22T09:01:46.586Z,29.95
2023-11-22T09:04:13.050Z,31.73
2023-11-22T09:06:39.542Z,29.70
2023-11-22T09:09:06.462Z,25.65
2023-11-22T09:11:35.686Z,26.48
2023-11-22T09:14:05.950Z,31.35
2023-11-22T09:16:40.073Z,22.88
2023-11-22T09:19:09.650Z,31.00
2023-11-22T09:21:36.241Z,27.00
2023-11-22T09:24:03.396Z,32.08
2023-11-22T09:26:30.642Z,31.70
2023-11-22T09:28:59.949Z,26.60
2023-11-22T09:31:27.522Z,27.45
2023-11-22T09:33:54.139Z,33.03
2023-11-22T09:36:20.643Z,29.95
2023-11-22T09:38:48.260Z,26.88
2023-11-22T09:41:17.191Z,30.25
2023-11-22T09:43:45.165Z,25.02
2023-11-22T09:46:13.094Z,30.67
2023-11-22T09:48:40.900Z,30.13
2023-11-22T09:51:18.987Z,33.67
2023-11-22T09:53:52.910Z,28.88
2023-11-22T09:56:19.939Z,34.60
2023-11-22T09:58:46.515Z,27.35
2023-11-22T10:01:14.619Z,29.52
2023-11-22T10:03:41.572Z,25.63
2023-11-22T10:06:08.493Z,27.98
2023-11-22T10:08:37.045Z,27.42
2023-11-22T10:11:05.387Z,26.80
2023-11-22T10:13:32.129Z,34.42
2023-11-22T10:16:13.390Z,30.52
2023-11-22T10:18:42.919Z,32.38
2023-11-22T10:21:23.953Z,28.98
2023-11-22T10:23:52.861Z,26.55
2023-11-22T10:26:19.819Z,31.13
2023-11-22T10:28:46.384Z,28.23
2023-11-22T10:31:12.941Z,33.72
2023-11-22T10:33:43.567Z,28.75
2023-11-22T10:36:10.633Z,31.17
2023-11-22T10:38:37.413Z,34.05
2023-11-22T10:41:08.806Z,41.33
2023-11-22T10:43:39.262Z,28.80
2023-11-22T10:46:06.227Z,27.98
2023-11-22T10:48:36.840Z,32.70
2023-11-22T10:51:07.328Z,32.05
2023-11-22T10:53:35.764Z,30.63
2023-11-22T10:56:12.912Z,31.83
2023-11-22T10:58:48.990Z,26.83
2023-11-22T11:01:23.409Z,30.63
2023-11-22T11:04:07.922Z,31.92
2023-11-22T11:06:35.641Z,31.00
2023-11-22T11:09:06.704Z,29.75
2023-11-22T11:11:34.977Z,26.15
2023-11-22T11:14:03.142Z,30.90
2023-11-22T11:16:32.396Z,32.38
2023-11-22T11:18:59.610Z,34.72
2023-11-22T11:21:26.808Z,31.42
2023-11-22T11:23:57.831Z,28.40
2023-11-22T11:26:27.007Z,31.88
2023-11-22T11:28:56.283Z,30.50
2023-11-22T11:31:23.839Z,33.80
2023-11-22T11:33:50.914Z,31.73
2023-11-22T11:36:32.814Z,28.05
2023-11-22T11:39:04.891Z,32.50
2023-11-22T11:41:34.796Z,33.00
2023-11-22T11:44:05.562Z,30.60
2023-11-22T11:46:32.513Z,31.33
2023-11-22T11:48:59.124Z,26.98
2023-11-22T11:51:28.028Z,29.40
2023-11-22T11:53:55.529Z,29.40
2023-11-22T11:56:22.249Z,33.85
2023-11-22T11:58:53.434Z,32.60
2023-11-22T12:01:23.822Z,30.02
2023-11-22T12:03:52.204Z,36.08
2023-11-22T12:06:21.148Z,29.70
2023-11-22T12:08:48.528Z,28.63
2023-11-22T12:11:17.334Z,24.98
2023-11-22T12:13:51.788Z,26.10
2023-11-22T12:16:19.445Z,27.77
2023-11-22T12:18:49.280Z,20.90
2023-11-22T12:21:17.398Z,25.50
2023-11-22T12:23:45.055Z,24.65
2023-11-22T12:26:21.606Z,25.92
2023-11-22T12:29:00.109Z,25.42
2023-11-22T12:31:36.099Z,31.85
2023-11-22T12:34:03.861Z,24.02
2023-11-22T12:36:30.524Z,23.77
2023-11-22T12:38:59.403Z,24.02
2023-11-22T12:41:27.956Z,26.17
2023-11-22T12:44:05.546Z,23.75
2023-11-22T12:46:56.859Z,24.83
2023-11-22T12:49:24.393Z,23.80
2023-11-22T12:51:52.265Z,25.92
2023-11-22T12:54:21.663Z,26.60
2023-11-22T12:56:59.513Z,24.10
2023-11-22T12:59:31.411Z,24.08
2023-11-22T13:01:58.925Z,20.67
2023-11-22T13:04:25.697Z,23.98
2023-11-22T13:06:52.881Z,23.92
2023-11-22T13:09:19.372Z,25.15
2023-11-22T13:11:46.837Z,25.08
2023-11-22T13:14:16.443Z,24.00
2023-11-22T13:16:43.909Z,24.25
2023-11-22T13:19:11.511Z,24.08
2023-11-22T13:21:38.019Z,23.40
2023-11-22T13:24:06.125Z,28.95
2023-11-22T13:26:32.697Z,29.45
2023-11-22T13:29:00.106Z,26.73
2023-11-22T13:31:26.657Z,25.58
2023-11-22T13:33:53.157Z,28.90
2023-11-22T13:36:19.627Z,27.77
2023-11-22T13:38:46.128Z,28.23
2023-11-22T13:41:12.640Z,24.25
2023-11-22T13:43:40.700Z,30.58
2023-11-22T13:46:11.163Z,24.67
2023-11-22T13:48:37.747Z,25.15
2023-11-22T13:51:07.159Z,31.98
2023-11-22T13:53:37.760Z,29.80
2023-11-22T13:56:09.930Z,29.33
2023-11-22T13:58:37.046Z,30.48
2023-11-22T14:01:07.248Z,34.83
2023-11-22T14:03:34.581Z,28.98
2023-11-22T14:06:02.023Z,28.20
2023-11-22T14:08:28.757Z,25.15
2023-11-22T14:10:55.478Z,28.00
2023-11-22T14:13:22.624Z,25.85
2023-11-22T14:15:49.674Z,24.38
2023-11-22T14:18:16.331Z,25.98
2023-11-22T14:20:42.865Z,27.67
2023-11-22T14:23:09.455Z,24.40
2023-11-22T14:25:36.087Z,28.60
2023-11-22T14:28:02.580Z,28.52
2023-11-22T14:30:31.808Z,28.10
2023-11-22T14:33:00.798Z,26.20
2023-11-22T14:35:28.880Z,30.05
2023-11-22T14:37:55.744Z,26.85
2023-11-22T14:40:22.659Z,28.15
2023-11-22T14:42:51.563Z,27.60
2023-11-22T14:45:20.865Z,28.10
2023-11-22T14:47:47.587Z,26.23
2023-11-22T14:50:16.846Z,27.33
2023-11-22T14:52:45.153Z,30.20
2023-11-22T14:55:13.727Z,32.88
2023-11-22T14:57:40.581Z,32.33
2023-11-22T15:00:10.991Z,32.58
2023-11-22T15:02:37.704Z,31.33
2023-11-22T15:05:05.869Z,31.88
2023-11-22T15:07:36.825Z,31.88
2023-11-22T15:10:03.359Z,30.40
2023-11-22T15:12:31.641Z,30.58
2023-11-22T15:14:58.227Z,28.42
2023-11-22T15:17:24.764Z,30.05
2023-11-22T15:19:51.426Z,29.90
2023-11-22T15:22:17.992Z,31.40
2023-11-22T15:24:45.582Z,32.70
2023-11-22T15:27:12.081Z,32.45
2023-11-22T15:29:38.569Z,34.53
2023-11-22T15:32:05.906Z,32.67
2023-11-22T15:34:32.459Z,30.60
2023-11-22T15:36:59.096Z,27.75
2023-11-22T15:39:25.703Z,30.40
2023-11-22T15:41:52.585Z,30.08
2023-11-22T15:44:19.070Z,32.72
2023-11-22T15:46:45.559Z,33.08
2023-11-22T15:49:12.074Z,31.88
2023-11-22T15:51:38.574Z,34.72
2023-11-22T15:54:05.481Z,31.23
2023-11-22T15:56:32.159Z,33.60
2023-11-22T15:59:01.879Z,34.85
2023-11-22T16:01:29.016Z,33.15
2023-11-22T16:03:55.791Z,31.90
2023-11-22T16:06:23.830Z,35.75
2023-11-22T16:08:50.610Z,34.58
2023-11-22T16:11:17.234Z,34.58
2023-11-22T16:13:45.582Z,40.38
2023-11-22T16:16:12.877Z,41.85
2023-11-22T16:18:40.148Z,38.92
2023-11-22T16:21:08.714Z,48.83
2023-11-22T16:23:36.432Z,42.38
2023-11-22T16:26:05.764Z,47.38
2023-11-22T16:28:37.013Z,44.50
2023-11-22T16:31:06.186Z,46.25
2023-11-22T16:33:34.964Z,51.75
2023-11-22T16:36:02.702Z,40.60
2023-11-22T16:38:29.201Z,49.38
2023-11-22T16:40:57.727Z,55.70
2023-11-22T16:43:24.172Z,56.65
2023-11-22T16:45:52.549Z,53.50
2023-11-22T16:48:19.247Z,50.13
2023-11-22T16:50:47.178Z,53.75
2023-11-22T16:53:15.999Z,62.28
2023-11-22T16:55:44.334Z,54.47
2023-11-22T16:58:11.831Z,55.15
2023-11-22T17:00:38.393Z,52.42
2023-11-22T17:03:05.066Z,60.75
2023-11-22T17:05:31.654Z,59.33
2023-11-22T17:07:58.318Z,56.05
2023-11-22T17:10:44.907Z,45.17
2023-11-22T17:13:12.374Z,56.17
2023-11-22T17:15:40.985Z,56.53
2023-11-22T17:18:08.277Z,52.15
2023-11-22T17:20:35.988Z,55.25
2023-11-22T17:23:02.482Z,49.50
2023-11-22T17:25:30.196Z,53.13
2023-11-22T17:27:59.681Z,50.22
2023-11-22T17:30:26.397Z,50.13
2023-11-22T17:32:53.519Z,61.38
2023-11-22T17:35:21.478Z,49.95
2023-11-22T17:37:48.469Z,45.85
2023-11-22T17:40:15.657Z,49.10
2023-11-22T17:42:42.200Z,48.20
2023-11-22T17:45:10.149Z,48.13
2023-11-22T17:47:37.295Z,44.60
2023-11-22T17:50:05.843Z,43.00
2023-11-22T17:52:32.815Z,52.65
2023-11-22T17:54:59.623Z,50.75
2023-11-22T17:57:26.147Z,50.58
2023-11-22T17:59:52.635Z,46.13
2023-11-22T18:02:19.136Z,45.42
2023-11-22T18:04:45.619Z,46.22
2023-11-22T18:07:15.409Z,43.08
2023-11-22T18:09:42.713Z,45.42
2023-11-22T18:12:11.680Z,46.47
2023-11-22T18:14:38.235Z,43.83
2023-11-22T18:17:04.737Z,43.55
2023-11-22T18:19:31.938Z,45.25
2023-11-22T18:21:59.163Z,51.88
2023-11-22T18:24:28.173Z,46.47
2023-11-22T18:26:55.850Z,44.45
2023-11-22T18:29:23.049Z,41.53
2023-11-22T18:31:51.195Z,55.13
2023-11-22T18:34:17.665Z,46.88
2023-11-22T18:36:44.131Z,45.70
2023-11-22T18:39:10.789Z,44.53
2023-11-22T18:41:39.871Z,42.70
2023-11-22T18:44:06.557Z,43.30
2023-11-22T18:46:33.014Z,42.03
2023-11-22T18:48:59.931Z,44.83
2023-11-22T18:51:26.383Z,38.35
2023-11-22T18:53:53.196Z,40.90
2023-11-22T18:56:19.786Z,41.20
2023-11-22T18:58:46.335Z,44.63
2023-11-22T19:01:12.844Z,39.90
2023-11-22T19:03:39.289Z,39.95
2023-11-22T19:06:07.990Z,44.88
2023-11-22T19:08:34.611Z,40.67
2023-11-22T19:11:01.172Z,41.38
2023-11-22T19:13:30.786Z,38.75
2023-11-22T19:15:59.422Z,40.88
2023-11-22T19:18:26.169Z,46.03
2023-11-22T19:20:55.059Z,37.38
2023-11-22T19:23:21.597Z,43.30
2023-11-22T19:25:48.352Z,36.17
2023-11-22T19:28:14.841Z,45.08
2023-11-22T19:30:41.400Z,37.28
2023-11-22T19:33:08.090Z,43.22
2023-11-22T19:35:36.114Z,45.95
2023-11-22T19:38:05.811Z,36.92
2023-11-22T19:40:33.087Z,40.13
2023-11-22T19:42:59.601Z,40.90
2023-11-22T19:45:26.029Z,37.88
2023-11-22T19:47:52.756Z,41.63
2023-11-22T19:50:21.187Z,43.63
2023-11-22T19:52:47.689Z,43.35
2023-11-22T19:55:14.749Z,40.95
2023-11-22T19:57:44.154Z,43.50
2023-11-22T20:00:11.597Z,41.70
2023-11-22T20:02:38.591Z,40.60
2023-11-22T20:05:05.707Z,41.80
2023-11-22T20:07:32.221Z,45.97
2023-11-22T20:10:01.588Z,43.55
2023-11-22T20:12:28.528Z,44.38
2023-11-22T20:14:55.866Z,48.90
2023-11-22T20:17:22.374Z,45.28
2023-11-22T20:19:49.689Z,42.97
2023-11-22T20:22:16.244Z,45.78
2023-11-22T20:24:43.060Z,49.65
2023-11-22T20:27:09.685Z,52.50
2023-11-22T20:29:36.947Z,47.17
2023-11-22T20:32:03.698Z,50.17
2023-11-22T20:34:31.082Z,47.67
2023-11-22T20:36:57.552Z,47.63
2023-11-22T20:39:24.194Z,49.28
2023-11-22T20:41:50.680Z,54.30
2023-11-22T20:44:17.801Z,51.97
2023-11-22T20:46:45.324Z,47.70
2023-11-22T20:49:12.678Z,51.05
2023-11-22T20:51:39.260Z,48.58
2023-11-22T20:54:05.803Z,52.47
2023-11-22T20:56:32.287Z,46.88
2023-11-22T20:58:58.739Z,66.05
2023-11-22T21:01:25.280Z,51.40
2023-11-22T21:03:51.998Z,44.47
2023-11-22T21:06:19.289Z,65.60
2023-11-22T21:08:46.700Z,46.35
2023-11-22T21:11:14.362Z,46.22
2023-11-22T21:13:41.213Z,106.85
2023-11-22T21:16:09.501Z,48.05
2023-11-22T21:18:38.158Z,61.83
2023-11-22T21:21:07.927Z,66.72
2023-11-22T21:23:34.534Z,53.25
2023-11-22T21:26:02.609Z,43.10
2023-11-22T21:28:29.066Z,49.20
2023-11-22T21:30:55.529Z,62.30
2023-11-22T21:33:22.071Z,56.47
2023-11-22T21:35:48.623Z,62.38
2023-11-22T21:38:15.231Z,54.13
2023-11-22T21:40:42.883Z,101.93
2023-11-22T21:43:09.476Z,45.42
2023-11-22T21:45:36.101Z,60.58
2023-11-22T21:48:03.488Z,49.13
2023-11-22T21:50:30.132Z,49.75
2023-11-22T21:52:56.618Z,53.88
2023-11-22T21:55:23.075Z,49.05
2023-11-22T21:57:49.588Z,45.15
2023-11-22T22:00:16.456Z,49.28
2023-11-22T22:02:43.153Z,53.90
2023-11-22T22:05:09.757Z,54.85
2023-11-22T22:07:36.310Z,49.97
2023-11-22T22:10:02.807Z,51.42
2023-11-22T22:12:29.234Z,50.83
2023-11-22T22:14:55.823Z,58.53
2023-11-22T22:17:22.360Z,51.80
2023-11-22T22:19:48.924Z,57.22
2023-11-22T22:22:15.700Z,59.40
2023-11-22T22:24:42.131Z,59.45
2023-11-22T22:27:08.622Z,61.45
2023-11-22T22:29:35.180Z,60.03
2023-11-22T22:32:01.683Z,51.13
2023-11-22T22:34:28.115Z,57.70
2023-11-22T22:36:57.631Z,57.00
2023-11-22T22:39:24.981Z,61.40
2023-11-22T22:41:52.030Z,61.17
2023-11-22T22:44:18.562Z,50.15
2023-11-22T22:46:45.384Z,56.05
2023-11-22T22:49:12.157Z,54.72
2023-11-22T22:51:38.925Z,47.50
2023-11-22T22:54:06.099Z,50.25
2023-11-22T22:56:32.635Z,46.97
2023-11-22T22:58:59.172Z,55.90
2023-11-22T23:01:25.734Z,58.72
2023-11-22T23:03:52.290Z,56.13
2023-11-22T23:06:26.351Z,48.65
2023-11-22T23:08:53.807Z,56.50
2023-11-22T23:11:21.684Z,53.53
2023-11-22T23:13:48.837Z,51.40
2023-11-22T23:16:15.437Z,54.13
2023-11-22T23:18:45.246Z,55.22
2023-11-22T23:21:13.279Z,55.75
2023-11-22T23:23:39.877Z,49.70
2023-11-22T23:26:06.435Z,47.45
2023-11-22T23:28:33.809Z,61.78
2023-11-22T23:31:00.798Z,55.28
2023-11-22T23:33:27.401Z,54.88
2023-11-22T23:35:54.463Z,46.60
2023-11-22T23:38:22.247Z,48.55
2023-11-22T23:40:48.958Z,53.47
2023-11-22T23:43:17.975Z,54.67
2023-11-22T23:45:45.048Z,50.70
2023-11-22T23:48:14.315Z,46.08
2023-11-22T23:50:41.247Z,44.45
2023-11-22T23:53:07.747Z,48.88
2023-11-22T23:55:34.246Z,47.42
2023-11-22T23:58:01.176Z,46.88
